Pagrindinis puslapis
METAR-TAF:

METAR-TAF

Oro uostai :

Piarko tarptautinis oro uostas

Port of Speinas, Trinidadas, Trinidadas ir Tobagas

platuma: 10-37N, ilguma: 061-21W, Aukštis: 12 m

Dabartinis oras

Ataskaita buvo paskelbta 46 minutes, ne 02:00 UTC
Vėjas 3 kt iš Rytų
Temperatūra 25°C
Drėgmė 79%
Slėgis 1013 hPa
Matomumas 10 km arba daugiau
Mažai debesys ne aukštis 1600 ft

METAR: TTPP 240200Z 09003KT 9999 FEW016 25/21 Q1013 NOSIG

Laikas: 22:46 (02:46 UTC)

Prognozė

Ataskaita buvo paskelbta 4 valandos ir 46 minutes, ne 22:00 UTC
Prognozė galioja nuo 24 metu 00 UTC su 24 metu 24 UTC
Vėjas 5 kt iš Rytų
Matomumas 10 km arba daugiau
Mažai debesys ne aukštis 1600 ft
Tapsmas
nuo 24 metu 12 UTC su 24 metu 14 UTC
Vėjas 13 kt iš Rytų/Pietryčių
Išsisklaidę debesys ne aukštis 2200 ft

TAF: TTPP 232200Z 2400/2424 10005KT 9999 FEW016 BECMG 2412/2414 11013KT SCT022

Orai ataskaitas ir orų prognozės (METAR, TAF).

turimą stotys yra geltonos ir raudonos taškus žemėlapyje.

Perkelti pele per norėdami pamatyti stoties vardą.

Tada spustelėkite, norėdami matyti oro stebėjimo ir prognozės.

Norėdami pakeisti žemėlapį: spustelėkite ant žalios mygtukų su juodo kryžiaus žemyn,; žalią mygtuką su brūkšneliu, jei norite nutolinti; arba žalių rodyklių gretimoms žemėlapius.


METAR-TAF: